Talon, Russia
Current Conditions -  °F | °C
As of 4:30 PM on Thursday 18 Dec 2014 (Local Time) from UHMM Reporting Station
Scattered Clouds Scattered Clouds  
Wind Chill: -15°   Ceiling: Unl
Heat Index: -15°   Visibility: 6mi
Dew Point: -22°   Wind: 2mph
Humidity: 70%   Direction: 90°E
Pressure: 29.88"   Gusts: NA
Location:  59.8°N, 148.63°E
Report Text: UHMM 180530Z 09001MPS 9999 SCT200 M26/M30 Q1012 NOSIG RMKQFE744 88920550
Loading
Personal Weather Stations






























Interactive Weather Map New forecast layout! Learn more

10-Day Weather Forecast

Advertisements
Track Severe Weather on mobile